createdAt,value
2022-08-18T00:00:55.027Z,7.50
2022-08-18T00:02:11.603Z,7.13
2022-08-18T00:03:27.337Z,7.37
2022-08-18T00:04:46.051Z,7.57
2022-08-18T00:05:51.420Z,8.40
2022-08-18T00:06:53.064Z,7.93
2022-08-18T00:07:54.890Z,7.60
2022-08-18T00:09:01.695Z,7.70
2022-08-18T00:10:06.178Z,7.50
2022-08-18T00:11:07.913Z,7.80
2022-08-18T00:12:21.449Z,7.50
2022-08-18T00:13:23.031Z,7.70
2022-08-18T00:14:24.632Z,7.60
2022-08-18T00:15:26.682Z,7.90
2022-08-18T00:16:28.502Z,7.80
2022-08-18T00:17:31.174Z,8.00
2022-08-18T00:18:32.807Z,8.00
2022-08-18T00:19:46.964Z,7.80
2022-08-18T00:20:49.664Z,7.70
2022-08-18T00:21:51.649Z,7.90
2022-08-18T00:22:53.611Z,7.90
2022-08-18T00:23:55.277Z,7.57
2022-08-18T00:24:58.200Z,6.80
2022-08-18T00:26:00.366Z,7.80
2022-08-18T00:27:02.179Z,7.33
2022-08-18T00:28:05.088Z,7.00
2022-08-18T00:29:06.679Z,7.80
2022-08-18T00:30:13.382Z,7.23
2022-08-18T00:31:15.003Z,8.03
2022-08-18T00:32:21.084Z,8.00
2022-08-18T00:33:23.083Z,7.57
2022-08-18T00:34:25.012Z,7.90
2022-08-18T00:35:31.064Z,7.70
2022-08-18T00:36:34.680Z,8.30
2022-08-18T00:37:36.529Z,8.00
2022-08-18T00:38:39.242Z,7.50
2022-08-18T00:39:43.565Z,7.73
2022-08-18T00:40:54.096Z,8.47
2022-08-18T00:41:56.255Z,7.30
2022-08-18T00:43:04.773Z,7.53
2022-08-18T00:44:06.420Z,7.37
2022-08-18T00:45:08.918Z,7.20
2022-08-18T00:46:17.376Z,7.73
2022-08-18T00:47:32.963Z,7.40
2022-08-18T00:48:40.730Z,7.60
2022-08-18T00:49:53.272Z,7.43
2022-08-18T00:50:59.166Z,8.00
2022-08-18T00:52:04.328Z,7.30
2022-08-18T00:53:15.147Z,7.93
2022-08-18T00:54:27.466Z,7.10
2022-08-18T00:55:32.295Z,8.07
2022-08-18T00:56:46.126Z,8.20
2022-08-18T00:57:50.798Z,7.73
2022-08-18T00:59:07.928Z,7.33
2022-08-18T01:00:12.930Z,7.40
2022-08-18T01:01:16.796Z,8.07
2022-08-18T01:02:29.725Z,8.43
2022-08-18T01:03:33.726Z,8.23
2022-08-18T01:04:42.448Z,7.57
2022-08-18T01:05:53.469Z,7.50
2022-08-18T01:07:00.639Z,7.60
2022-08-18T01:08:03.171Z,7.70
2022-08-18T01:09:05.488Z,7.97
2022-08-18T01:10:09.653Z,8.10
2022-08-18T01:11:11.248Z,8.80
2022-08-18T01:12:43.801Z,7.90
2022-08-18T01:13:38.633Z,8.70
2022-08-18T01:14:40.432Z,8.27
2022-08-18T01:15:42.210Z,8.10
2022-08-18T01:17:04.574Z,8.00
2022-08-18T01:18:29.993Z,8.53
2022-08-18T01:19:50.858Z,8.50
2022-08-18T01:21:27.357Z,8.57
2022-08-18T01:22:55.719Z,8.23
2022-08-18T01:23:58.036Z,7.80
2022-08-18T01:25:39.686Z,7.90
2022-08-18T01:26:46.432Z,8.40
2022-08-18T01:27:48.093Z,8.60
2022-08-18T01:28:50.549Z,8.30
2022-08-18T01:29:52.133Z,7.90
2022-08-18T01:30:59.049Z,7.70
2022-08-18T01:32:00.667Z,8.43
2022-08-18T01:33:02.231Z,8.10
2022-08-18T01:34:06.377Z,8.40
2022-08-18T01:35:10.329Z,8.17
2022-08-18T01:36:18.536Z,8.93
2022-08-18T01:37:22.978Z,8.20
2022-08-18T01:38:24.959Z,8.10
2022-08-18T01:41:24.149Z,7.03
2022-08-18T01:41:27.332Z,7.83
2022-08-18T01:42:13.254Z,7.87
2022-08-18T01:43:15.668Z,8.33
2022-08-18T01:44:17.346Z,9.00
2022-08-18T01:45:20.556Z,9.13
2022-08-18T01:46:23.119Z,8.60
2022-08-18T01:47:24.839Z,7.37
2022-08-18T01:48:27.450Z,8.53
2022-08-18T01:49:29.160Z,8.70
2022-08-18T01:50:34.133Z,7.57
2022-08-18T01:51:40.362Z,9.40
2022-08-18T01:52:42.941Z,8.73
2022-08-18T01:53:45.027Z,9.07
2022-08-18T01:54:48.126Z,8.00
2022-08-18T01:55:50.681Z,8.50
2022-08-18T01:56:53.357Z,8.53
2022-08-18T01:57:55.663Z,8.40
2022-08-18T01:58:57.288Z,8.80
2022-08-18T02:00:01.032Z,8.40
2022-08-18T02:01:03.842Z,8.50
2022-08-18T02:02:05.765Z,7.53
2022-08-18T02:03:11.315Z,8.27
2022-08-18T02:04:33.868Z,8.10
2022-08-18T02:05:49.662Z,8.27
2022-08-18T02:06:51.456Z,9.03
2022-08-18T02:07:54.168Z,8.43
2022-08-18T02:08:56.178Z,7.97
2022-08-18T02:09:59.272Z,8.70
2022-08-18T02:11:01.505Z,8.00
2022-08-18T02:12:03.726Z,8.80
2022-08-18T02:13:05.884Z,8.73
2022-08-18T02:14:07.469Z,7.80
2022-08-18T02:15:10.147Z,9.03
2022-08-18T02:16:11.716Z,8.33
2022-08-18T02:17:13.717Z,8.87
2022-08-18T02:18:41.402Z,8.37
2022-08-18T02:19:42.919Z,8.47
2022-08-18T02:20:44.872Z,8.67
2022-08-18T02:21:46.520Z,7.57
2022-08-18T02:22:48.876Z,8.00
2022-08-18T02:23:53.623Z,9.10
2022-08-18T02:24:57.208Z,8.03
2022-08-18T02:25:59.121Z,8.47
2022-08-18T02:27:00.777Z,8.37
2022-08-18T02:28:02.743Z,8.40
2022-08-18T02:29:04.479Z,8.97
2022-08-18T02:30:11.361Z,9.60
2022-08-18T02:31:18.787Z,8.73
2022-08-18T02:32:20.392Z,8.43
2022-08-18T02:33:22.014Z,9.20
2022-08-18T02:34:23.928Z,9.97
2022-08-18T02:35:25.583Z,10.77
2022-08-18T02:36:28.282Z,9.97
2022-08-18T02:37:31.144Z,10.27
2022-08-18T02:38:33.463Z,9.53
2022-08-18T02:39:37.873Z,9.50
2022-08-18T02:40:39.603Z,9.40
2022-08-18T02:41:42.033Z,9.70
2022-08-18T02:42:45.546Z,9.40
2022-08-18T02:43:48.351Z,10.70
2022-08-18T02:44:50.174Z,9.20
2022-08-18T02:45:51.852Z,9.40
2022-08-18T02:46:54.518Z,9.30
2022-08-18T02:47:56.843Z,9.60
2022-08-18T02:49:00.140Z,9.50
2022-08-18T02:50:01.823Z,9.37
2022-08-18T02:51:16.038Z,9.83
2022-08-18T02:52:17.835Z,9.40
2022-08-18T02:53:22.626Z,9.83
2022-08-18T02:54:25.108Z,9.37
2022-08-18T02:55:29.163Z,9.23
2022-08-18T02:56:41.508Z,9.20
2022-08-18T02:57:46.042Z,9.03
2022-08-18T02:58:48.356Z,10.47
2022-08-18T02:59:49.996Z,9.13
2022-08-18T03:00:51.584Z,9.33
2022-08-18T03:01:55.643Z,9.47
2022-08-18T03:02:57.376Z,8.87
2022-08-18T03:04:00.506Z,9.10
2022-08-18T03:05:02.146Z,9.60
2022-08-18T03:06:04.739Z,10.17
2022-08-18T03:07:07.650Z,10.07
2022-08-18T03:08:10.525Z,9.83
2022-08-18T03:09:15.062Z,10.20
2022-08-18T03:10:31.430Z,11.43
2022-08-18T03:11:36.487Z,11.60
2022-08-18T03:12:38.080Z,11.10
2022-08-18T03:13:39.688Z,11.07
2022-08-18T03:14:41.261Z,11.77
2022-08-18T03:15:44.595Z,11.07
2022-08-18T03:16:52.968Z,12.10
2022-08-18T03:17:56.279Z,12.17
2022-08-18T03:18:58.291Z,11.77
2022-08-18T03:19:59.979Z,12.70
2022-08-18T03:21:07.856Z,12.10
2022-08-18T03:22:27.471Z,13.13
2022-08-18T03:23:31.144Z,12.50
2022-08-18T03:24:33.314Z,12.20
2022-08-18T03:25:35.187Z,12.60
2022-08-18T03:26:41.654Z,12.33
2022-08-18T03:27:43.306Z,13.07
2022-08-18T03:28:47.323Z,12.87
2022-08-18T03:29:50.178Z,13.37
2022-08-18T03:30:51.760Z,13.30
2022-08-18T03:31:53.455Z,14.80
2022-08-18T03:32:55.124Z,12.50
2022-08-18T03:33:59.355Z,13.17
2022-08-18T03:35:01.587Z,14.60
2022-08-18T03:36:08.243Z,14.10
2022-08-18T03:37:10.286Z,14.03
2022-08-18T03:38:11.998Z,14.10
2022-08-18T03:39:13.932Z,14.10
2022-08-18T03:40:15.633Z,13.80
2022-08-18T03:41:43.805Z,15.00
2022-08-18T03:42:40.967Z,16.67
2022-08-18T03:43:50.682Z,17.60
2022-08-18T03:44:53.343Z,14.67
2022-08-18T03:45:55.242Z,14.60
2022-08-18T03:46:57.426Z,13.47
2022-08-18T03:48:00.591Z,14.40
2022-08-18T03:49:02.268Z,13.60
2022-08-18T03:50:04.111Z,15.73
2022-08-18T03:51:08.301Z,14.90
2022-08-18T03:52:10.435Z,15.03
2022-08-18T03:53:12.099Z,15.00
2022-08-18T03:54:16.392Z,16.37
2022-08-18T03:55:18.583Z,15.40
2022-08-18T03:56:24.913Z,15.80
2022-08-18T03:57:26.516Z,16.77
2022-08-18T03:58:28.443Z,15.97
2022-08-18T03:59:32.168Z,15.70
2022-08-18T04:00:37.601Z,17.63
2022-08-18T04:01:42.210Z,15.50
2022-08-18T04:02:43.822Z,17.00
2022-08-18T04:03:47.664Z,17.97
2022-08-18T04:04:51.370Z,17.23
2022-08-18T04:05:53.075Z,17.10
2022-08-18T04:06:58.552Z,16.90
2022-08-18T04:08:00.536Z,17.50
2022-08-18T04:09:05.240Z,17.30
2022-08-18T04:10:07.290Z,19.70
2022-08-18T04:11:20.951Z,18.83
2022-08-18T04:12:22.847Z,17.23
2022-08-18T04:13:24.498Z,17.20
2022-08-18T04:14:32.730Z,17.97
2022-08-18T04:15:34.398Z,19.57
2022-08-18T04:16:38.179Z,19.60
2022-08-18T04:18:03.588Z,17.87
2022-08-18T04:19:04.422Z,18.80
2022-08-18T04:20:06.367Z,18.13
2022-08-18T04:21:10.673Z,19.50
2022-08-18T04:22:18.272Z,18.63
2022-08-18T04:23:21.134Z,18.83
2022-08-18T04:24:22.914Z,18.80
2022-08-18T04:25:29.514Z,18.60
2022-08-18T04:26:45.984Z,19.37
2022-08-18T04:27:47.621Z,17.73
2022-08-18T04:28:49.276Z,18.80
2022-08-18T04:29:50.934Z,18.87
2022-08-18T04:30:54.212Z,17.63
2022-08-18T04:31:56.107Z,17.07
2022-08-18T04:32:57.906Z,18.60
2022-08-18T04:34:01.330Z,19.20
2022-08-18T04:35:04.184Z,19.13
2022-08-18T04:36:11.298Z,18.23
2022-08-18T04:37:15.292Z,18.00
2022-08-18T04:38:16.860Z,17.93
2022-08-18T04:39:18.623Z,18.60
2022-08-18T04:40:25.063Z,17.63
2022-08-18T04:41:27.683Z,18.93
2022-08-18T04:42:29.519Z,19.27
2022-08-18T04:43:32.489Z,17.57
2022-08-18T04:44:37.777Z,17.80
2022-08-18T04:45:40.053Z,19.17
2022-08-18T04:46:46.132Z,18.47
2022-08-18T04:47:47.744Z,19.00
2022-08-18T04:48:50.739Z,19.50
2022-08-18T04:49:52.373Z,20.40
2022-08-18T04:50:53.948Z,20.13
2022-08-18T04:52:36.139Z,19.57
2022-08-18T04:53:45.824Z,20.10
2022-08-18T04:54:47.419Z,20.20
2022-08-18T04:55:53.594Z,20.90
2022-08-18T04:56:55.215Z,20.00
2022-08-18T04:57:59.231Z,20.47
2022-08-18T04:59:14.642Z,22.27
2022-08-18T05:00:19.548Z,21.30
2022-08-18T05:01:27.226Z,21.47
2022-08-18T05:02:29.271Z,21.07
2022-08-18T05:03:31.001Z,20.70
2022-08-18T05:04:34.711Z,22.03
2022-08-18T05:05:36.481Z,20.60
2022-08-18T05:06:38.088Z,19.30
2022-08-18T05:07:44.879Z,19.30
2022-08-18T05:08:48.267Z,17.20
2022-08-18T05:09:50.690Z,18.30
2022-08-18T05:11:03.166Z,17.67
2022-08-18T05:12:07.704Z,17.97
2022-08-18T05:13:09.767Z,17.57
2022-08-18T05:14:11.647Z,17.47
2022-08-18T05:15:13.225Z,16.67
2022-08-18T05:16:27.249Z,17.30
2022-08-18T05:17:30.567Z,18.50
2022-08-18T05:18:40.337Z,18.07
2022-08-18T05:19:44.732Z,19.97
2022-08-18T05:20:46.396Z,19.43
2022-08-18T05:21:51.751Z,20.30
2022-08-18T05:22:55.772Z,20.27
2022-08-18T05:23:57.431Z,20.57
2022-08-18T05:25:00.124Z,21.20
2022-08-18T05:26:06.447Z,20.80
2022-08-18T05:27:08.174Z,21.80
2022-08-18T05:28:09.874Z,21.47
2022-08-18T05:29:18.584Z,22.40
2022-08-18T05:30:21.686Z,23.13
2022-08-18T05:31:25.626Z,22.63
2022-08-18T05:32:46.979Z,21.90
2022-08-18T05:33:51.806Z,21.73
2022-08-18T05:34:53.448Z,21.20
2022-08-18T05:36:05.281Z,24.17
2022-08-18T05:37:20.296Z,22.00
2022-08-18T05:38:39.542Z,21.30
2022-08-18T05:39:58.526Z,22.07
2022-08-18T05:41:19.527Z,22.07
2022-08-18T05:42:22.577Z,20.87
2022-08-18T05:43:24.566Z,20.50
2022-08-18T05:44:30.531Z,22.27
2022-08-18T05:45:34.728Z,21.33
2022-08-18T05:46:54.751Z,22.50
2022-08-18T05:48:00.215Z,22.90
2022-08-18T05:49:02.096Z,22.70
2022-08-18T05:50:09.394Z,21.93
2022-08-18T05:51:22.730Z,23.40
2022-08-18T05:52:38.333Z,22.60
2022-08-18T05:54:04.541Z,22.73
2022-08-18T05:55:32.195Z,22.30
2022-08-18T05:56:49.236Z,22.70
2022-08-18T05:57:56.730Z,22.80
2022-08-18T05:59:01.242Z,22.70
2022-08-18T06:00:05.541Z,22.60
2022-08-18T06:01:15.749Z,19.63
2022-08-18T06:02:45.835Z,19.50
2022-08-18T06:03:52.901Z,20.97
2022-08-18T06:04:59.962Z,20.00
2022-08-18T06:06:06.170Z,21.03
2022-08-18T06:07:11.848Z,19.50
2022-08-18T06:08:14.896Z,19.80
2022-08-18T06:09:34.890Z,19.87
2022-08-18T06:10:38.394Z,21.90
2022-08-18T06:11:40.437Z,19.80
2022-08-18T06:12:47.269Z,20.67
2022-08-18T06:13:50.563Z,22.33
2022-08-18T06:15:10.203Z,21.80
2022-08-18T06:16:23.602Z,24.10
2022-08-18T06:17:43.872Z,24.87
2022-08-18T06:19:10.960Z,24.70
2022-08-18T06:20:23.262Z,21.80
2022-08-18T06:21:34.490Z,22.50
2022-08-18T06:23:24.316Z,24.10
2022-08-18T06:24:41.534Z,25.70
2022-08-18T06:26:01.660Z,29.47
2022-08-18T06:27:11.994Z,31.23
2022-08-18T06:28:16.087Z,35.80
2022-08-18T06:29:34.390Z,37.17
2022-08-18T06:30:42.065Z,37.37
2022-08-18T06:31:46.554Z,38.33
2022-08-18T06:33:06.253Z,41.70
2022-08-18T06:34:22.794Z,39.80
2022-08-18T06:35:38.508Z,41.40
2022-08-18T06:36:54.866Z,40.50
2022-08-18T06:38:34.443Z,41.13
2022-08-18T06:39:47.304Z,40.90
2022-08-18T06:40:50.095Z,40.20
2022-08-18T06:41:53.684Z,40.70
2022-08-18T06:42:55.524Z,42.00
2022-08-18T06:44:07.351Z,40.43
2022-08-18T06:45:12.818Z,41.90
2022-08-18T06:46:20.155Z,40.30
2022-08-18T06:47:30.574Z,41.17
2022-08-18T06:48:42.110Z,43.13
2022-08-18T06:50:06.732Z,43.07
2022-08-18T06:51:10.119Z,41.07
2022-08-18T06:52:20.544Z,40.90
2022-08-18T06:53:27.363Z,43.27
2022-08-18T06:54:30.605Z,41.50
2022-08-18T06:55:42.611Z,42.57
2022-08-18T06:56:44.194Z,44.23
2022-08-18T06:58:01.823Z,45.23
2022-08-18T06:59:24.893Z,42.70
2022-08-18T07:00:34.133Z,44.40
2022-08-18T07:01:38.326Z,42.40
2022-08-18T07:03:04.718Z,42.73
2022-08-18T07:04:06.805Z,41.77
2022-08-18T07:05:14.260Z,43.23
2022-08-18T07:06:21.757Z,40.63
2022-08-18T07:07:40.403Z,41.00
2022-08-18T07:08:55.961Z,39.93
2022-08-18T07:09:57.598Z,41.90
2022-08-18T07:11:22.233Z,41.00
2022-08-18T07:12:32.578Z,42.90
2022-08-18T07:13:38.947Z,39.93
2022-08-18T07:14:53.502Z,40.67
2022-08-18T07:16:15.768Z,42.93
2022-08-18T07:17:43.576Z,46.33
2022-08-18T07:18:46.544Z,47.20
2022-08-18T07:20:01.235Z,44.47
2022-08-18T07:21:02.934Z,46.63
2022-08-18T07:22:14.667Z,46.40
2022-08-18T07:23:35.154Z,45.10
2022-08-18T07:24:44.075Z,47.53
2022-08-18T07:25:46.565Z,47.20
2022-08-18T07:26:59.091Z,45.20
2022-08-18T07:28:02.554Z,46.90
2022-08-18T07:29:15.353Z,45.60
2022-08-18T07:30:19.452Z,48.70
2022-08-18T07:31:36.515Z,47.47
2022-08-18T07:32:48.089Z,48.47
2022-08-18T07:34:12.488Z,51.60
2022-08-18T07:35:39.209Z,53.20
2022-08-18T07:36:58.153Z,52.00
2022-08-18T07:38:43.505Z,49.80
2022-08-18T07:39:55.832Z,54.67
2022-08-18T07:41:20.591Z,53.87
2022-08-18T07:43:01.428Z,53.90
2022-08-18T07:44:23.654Z,55.40
2022-08-18T07:45:34.138Z,54.13
2022-08-18T07:46:45.488Z,50.13
2022-08-18T07:48:15.749Z,52.53
2022-08-18T07:49:24.889Z,53.50
2022-08-18T07:50:58.795Z,56.30
2022-08-18T07:52:04.041Z,54.30
2022-08-18T07:53:11.952Z,54.10
2022-08-18T07:55:55.755Z,52.20
2022-08-18T07:57:27.195Z,52.60
2022-08-18T07:58:32.649Z,53.50
2022-08-18T08:00:10.563Z,49.10
2022-08-18T08:01:37.011Z,54.40
2022-08-18T08:03:12.507Z,54.00
2022-08-18T08:04:39.647Z,50.63
2022-08-18T08:06:20.426Z,50.43
2022-08-18T08:07:29.908Z,52.60
2022-08-18T08:08:40.285Z,52.50
2022-08-18T08:09:58.305Z,51.33
2022-08-18T08:11:20.664Z,54.93
2022-08-18T08:12:31.190Z,53.37
2022-08-18T08:13:55.323Z,50.30
2022-08-18T08:15:09.899Z,50.20
2022-08-18T08:16:35.397Z,51.50
2022-08-18T08:17:57.921Z,49.50
2022-08-18T08:19:36.598Z,50.00
2022-08-18T08:20:49.366Z,50.07
2022-08-18T08:22:03.904Z,53.40
2022-08-18T08:23:17.811Z,51.67
2022-08-18T08:24:39.823Z,52.20
2022-08-18T08:25:54.646Z,49.97
2022-08-18T08:27:10.101Z,49.67
2022-08-18T08:28:26.896Z,52.00
2022-08-18T08:29:48.983Z,48.93
2022-08-18T08:31:33.470Z,47.27
2022-08-18T08:32:36.734Z,44.43
2022-08-18T08:33:55.394Z,46.43
2022-08-18T08:35:04.991Z,48.80
2022-08-18T08:36:18.663Z,47.37
2022-08-18T08:37:36.110Z,46.77
2022-08-18T08:39:04.086Z,45.53
2022-08-18T08:40:28.317Z,48.57
2022-08-18T08:41:44.808Z,46.37
2022-08-18T08:42:46.494Z,44.03
2022-08-18T08:44:01.502Z,50.50
2022-08-18T08:45:11.206Z,50.03
2022-08-18T08:46:19.746Z,49.70
2022-08-18T08:47:37.142Z,48.70
2022-08-18T08:48:49.332Z,47.93
2022-08-18T08:50:09.407Z,50.80
2022-08-18T08:51:51.147Z,51.83
2022-08-18T08:53:06.014Z,47.23
2022-08-18T08:54:17.734Z,44.80
2022-08-18T08:55:32.719Z,47.60
2022-08-18T08:56:42.853Z,47.60
2022-08-18T08:57:54.577Z,45.80
2022-08-18T08:59:05.606Z,44.60
2022-08-18T09:00:10.778Z,42.23
2022-08-18T09:01:40.672Z,41.77
2022-08-18T09:03:11.302Z,41.77
2022-08-18T09:04:39.638Z,42.80
2022-08-18T09:10:17.978Z,47.03
2022-08-18T09:14:00.263Z,43.40
2022-08-18T09:24:55.678Z,42.77
2022-08-18T09:33:54.614Z,42.80
2022-08-18T09:37:02.342Z,41.37
2022-08-18T09:38:33.711Z,40.27
2022-08-18T09:42:00.456Z,41.97
2022-08-18T09:43:20.165Z,40.50
2022-08-18T09:44:40.983Z,39.73
2022-08-18T09:45:47.372Z,42.10
2022-08-18T09:46:52.089Z,42.10
2022-08-18T09:47:53.866Z,44.10
2022-08-18T09:49:42.212Z,39.00
2022-08-18T09:51:20.860Z,36.77
2022-08-18T09:52:27.630Z,38.83
2022-08-18T09:53:47.726Z,40.10
2022-08-18T09:54:56.960Z,37.83
2022-08-18T09:56:04.881Z,40.53
2022-08-18T09:57:19.622Z,39.10
2022-08-18T09:58:26.219Z,40.60
2022-08-18T09:59:36.136Z,43.30
2022-08-18T10:00:38.318Z,42.00
2022-08-18T10:01:52.545Z,44.60
2022-08-18T10:02:55.351Z,42.40
2022-08-18T10:04:15.419Z,43.07
2022-08-18T10:05:19.454Z,44.43
2022-08-18T10:06:23.825Z,45.00
2022-08-18T10:09:26.693Z,46.03
2022-08-18T10:11:02.327Z,47.10
2022-08-18T10:12:41.300Z,50.73
2022-08-18T10:14:13.888Z,50.30
2022-08-18T10:15:41.105Z,50.30
2022-08-18T10:17:13.354Z,51.90
2022-08-18T10:18:22.883Z,46.80
2022-08-18T10:19:39.759Z,49.17
2022-08-18T10:23:09.873Z,49.77
2022-08-18T10:24:35.173Z,50.07
2022-08-18T10:25:41.321Z,51.40
2022-08-18T10:26:54.941Z,50.20
2022-08-18T10:27:57.717Z,50.60
2022-08-18T10:29:36.708Z,50.47
2022-08-18T10:30:56.983Z,49.40
2022-08-18T10:32:01.976Z,49.80
2022-08-18T10:33:17.883Z,48.00
2022-08-18T10:34:51.827Z,48.03
2022-08-18T10:36:00.227Z,50.00
2022-08-18T10:37:31.082Z,48.30
2022-08-18T10:38:49.325Z,49.70
2022-08-18T10:39:56.130Z,46.47
2022-08-18T10:41:10.155Z,46.63
2022-08-18T10:42:24.159Z,48.10
2022-08-18T10:44:42.570Z,44.83
2022-08-18T10:47:34.006Z,44.07
2022-08-18T10:48:40.096Z,46.17
2022-08-18T10:49:48.287Z,46.27
2022-08-18T10:51:03.007Z,44.73
2022-08-18T10:52:11.118Z,46.23
2022-08-18T10:53:44.426Z,44.67
2022-08-18T10:55:06.248Z,41.23
2022-08-18T10:56:45.959Z,44.37
2022-08-18T10:58:28.289Z,46.20
2022-08-18T10:59:52.243Z,44.60
2022-08-18T11:01:11.538Z,42.07
2022-08-18T11:02:26.020Z,46.20
2022-08-18T11:05:22.258Z,43.97
2022-08-18T11:06:26.451Z,43.10
2022-08-18T11:07:34.329Z,44.47
2022-08-18T11:08:43.878Z,45.40
2022-08-18T11:10:04.644Z,45.70
2022-08-18T11:11:33.493Z,43.20
2022-08-18T11:12:45.955Z,47.60
2022-08-18T11:18:31.450Z,44.03
2022-08-18T11:19:42.186Z,44.97
2022-08-18T11:22:32.554Z,46.70
2022-08-18T11:23:35.316Z,45.50
2022-08-18T11:27:36.532Z,47.73
2022-08-18T11:28:45.066Z,42.97
2022-08-18T11:29:49.434Z,46.30
2022-08-18T11:30:56.826Z,45.93
2022-08-18T11:33:23.143Z,48.57
2022-08-18T11:34:38.363Z,46.20
2022-08-18T11:35:58.526Z,45.27
2022-08-18T11:37:04.888Z,47.27
2022-08-18T11:39:47.398Z,45.73
2022-08-18T11:41:13.079Z,44.20
2022-08-18T11:42:25.144Z,44.83
2022-08-18T11:43:41.215Z,46.13
2022-08-18T11:46:29.649Z,45.80
2022-08-18T11:47:33.895Z,43.90
2022-08-18T11:48:51.036Z,42.37
2022-08-18T11:49:59.256Z,46.00
2022-08-18T11:54:25.018Z,42.60
2022-08-18T11:55:37.023Z,42.33
2022-08-18T11:56:40.326Z,41.73
2022-08-18T11:57:59.785Z,43.23
2022-08-18T11:59:07.755Z,40.00
2022-08-18T12:00:42.891Z,40.30
2022-08-18T12:01:51.305Z,40.43
2022-08-18T12:03:28.431Z,43.03
2022-08-18T12:04:42.893Z,41.40
2022-08-18T12:07:26.882Z,37.07
2022-08-18T12:08:58.177Z,37.67
2022-08-18T12:10:26.296Z,39.50
2022-08-18T12:11:49.082Z,40.60
2022-08-18T12:12:54.199Z,41.37
2022-08-18T12:14:32.590Z,42.60
2022-08-18T12:16:55.648Z,41.83
2022-08-18T12:17:58.427Z,39.97
2022-08-18T12:20:24.216Z,40.60
2022-08-18T12:21:26.678Z,41.63
2022-08-18T12:22:32.931Z,39.30
2022-08-18T12:23:44.697Z,42.23
2022-08-18T12:25:00.003Z,45.60
2022-08-18T12:26:04.007Z,42.27
2022-08-18T12:27:20.847Z,42.87
2022-08-18T12:28:28.243Z,42.00
2022-08-18T12:29:43.629Z,41.30
2022-08-18T12:30:45.913Z,40.50
2022-08-18T12:31:51.570Z,41.83
2022-08-18T12:33:05.343Z,42.63
2022-08-18T12:34:13.582Z,40.53
2022-08-18T12:35:21.762Z,40.80
2022-08-18T12:36:25.017Z,41.30
2022-08-18T12:37:58.527Z,41.40
2022-08-18T12:38:56.121Z,38.80
2022-08-18T12:40:02.904Z,41.73
2022-08-18T12:41:12.380Z,42.67
2022-08-18T12:43:00.114Z,40.83
2022-08-18T12:44:03.196Z,40.17
2022-08-18T12:45:07.695Z,41.10
2022-08-18T12:46:12.935Z,39.80
2022-08-18T12:47:21.758Z,37.73
2022-08-18T12:48:24.906Z,37.77
2022-08-18T12:49:31.285Z,39.43
2022-08-18T12:52:00.642Z,40.43
2022-08-18T12:53:08.167Z,40.57
2022-08-18T12:54:12.625Z,42.70
2022-08-18T12:55:21.444Z,42.33
2022-08-18T12:56:30.688Z,41.50
2022-08-18T12:57:53.468Z,39.83
2022-08-18T12:59:24.344Z,39.87
2022-08-18T13:01:48.984Z,41.73
2022-08-18T13:02:55.618Z,40.40
2022-08-18T13:04:13.046Z,41.43
2022-08-18T13:05:26.646Z,42.33
2022-08-18T13:06:31.297Z,40.30
2022-08-18T13:07:33.760Z,41.13
2022-08-18T13:08:38.160Z,41.10
2022-08-18T13:09:53.702Z,41.17
2022-08-18T13:10:58.201Z,38.70
2022-08-18T13:12:37.899Z,40.57
2022-08-18T13:17:48.961Z,37.33
2022-08-18T13:18:50.933Z,38.53
2022-08-18T13:19:54.306Z,35.10
2022-08-18T13:20:59.229Z,40.10
2022-08-18T13:22:32.281Z,38.43
2022-08-18T13:23:35.306Z,38.60
2022-08-18T13:24:37.568Z,37.50
2022-08-18T13:25:42.000Z,40.50
2022-08-18T13:26:49.578Z,36.60
2022-08-18T13:27:58.128Z,38.33
2022-08-18T13:29:01.401Z,39.20
2022-08-18T13:30:29.787Z,40.70
2022-08-18T13:31:29.969Z,39.67
2022-08-18T13:32:47.184Z,39.30
2022-08-18T13:34:00.007Z,40.07
2022-08-18T13:35:13.275Z,41.20
2022-08-18T13:36:15.833Z,38.33
2022-08-18T13:37:18.713Z,40.27
2022-08-18T13:38:27.381Z,41.73
2022-08-18T13:39:33.680Z,40.17
2022-08-18T13:40:37.981Z,39.87
2022-08-18T13:42:21.609Z,39.67
2022-08-18T13:43:34.527Z,39.77
2022-08-18T13:44:37.092Z,41.63
2022-08-18T13:45:39.762Z,40.43
2022-08-18T13:46:48.292Z,39.60
2022-08-18T13:47:51.278Z,40.93
2022-08-18T13:48:54.120Z,41.13
2022-08-18T13:49:58.689Z,40.70
2022-08-18T13:51:03.346Z,41.97
2022-08-18T13:52:12.206Z,39.63
2022-08-18T13:53:29.678Z,40.57
2022-08-18T13:56:51.662Z,39.27
2022-08-18T13:57:55.533Z,38.07
2022-08-18T13:58:57.871Z,39.70
2022-08-18T14:00:00.443Z,38.50
2022-08-18T14:01:42.159Z,40.83
2022-08-18T14:02:30.482Z,39.53
2022-08-18T14:03:42.778Z,37.07
2022-08-18T14:04:51.685Z,38.53
2022-08-18T14:06:01.645Z,37.80
2022-08-18T14:07:09.659Z,40.27
2022-08-18T14:08:24.855Z,37.50
2022-08-18T14:09:46.303Z,39.30
2022-08-18T14:11:06.222Z,39.80
2022-08-18T14:12:36.503Z,40.37
2022-08-18T14:15:08.839Z,41.23
2022-08-18T14:16:18.611Z,39.17
2022-08-18T14:17:24.476Z,39.27
2022-08-18T14:18:28.844Z,40.00
2022-08-18T14:19:51.175Z,39.83
2022-08-18T14:21:12.669Z,37.17
2022-08-18T14:22:33.489Z,39.43
2022-08-18T14:24:06.469Z,37.50
2022-08-18T14:25:31.640Z,40.53
2022-08-18T14:26:50.540Z,40.30
2022-08-18T14:27:56.547Z,40.97
2022-08-18T14:28:59.742Z,40.97
2022-08-18T14:30:08.172Z,40.03
2022-08-18T14:31:14.367Z,40.07
2022-08-18T14:32:29.342Z,37.77
2022-08-18T14:33:49.879Z,36.30
2022-08-18T14:34:58.547Z,39.03
2022-08-18T14:36:09.283Z,39.03
2022-08-18T14:37:12.154Z,39.30
2022-08-18T14:38:16.277Z,37.83
2022-08-18T14:39:18.312Z,37.97
2022-08-18T14:40:20.440Z,38.83
2022-08-18T14:41:25.553Z,37.57
2022-08-18T14:42:32.822Z,37.20
2022-08-18T14:44:00.495Z,36.67
2022-08-18T14:45:16.963Z,35.87
2022-08-18T14:47:37.333Z,38.90
2022-08-18T14:49:04.071Z,39.07
2022-08-18T14:50:06.942Z,36.57
2022-08-18T14:51:12.248Z,36.70
2022-08-18T14:52:15.736Z,37.27
2022-08-18T14:53:21.291Z,40.13
2022-08-18T14:54:23.835Z,40.33
2022-08-18T14:55:31.013Z,37.80
2022-08-18T14:56:33.782Z,37.03
2022-08-18T14:57:42.949Z,37.03
2022-08-18T14:58:47.634Z,39.80
2022-08-18T14:59:49.990Z,37.67
2022-08-18T15:00:56.649Z,39.17
2022-08-18T15:01:59.438Z,37.97
2022-08-18T15:03:02.238Z,37.40
2022-08-18T15:04:18.684Z,38.50
2022-08-18T15:05:24.689Z,38.93
2022-08-18T15:06:27.498Z,42.30
2022-08-18T15:07:32.732Z,39.37
2022-08-18T15:08:36.139Z,43.30
2022-08-18T15:09:38.792Z,39.93
2022-08-18T15:10:41.898Z,42.13
2022-08-18T15:11:48.534Z,40.00
2022-08-18T15:17:28.768Z,43.50
2022-08-18T15:18:31.484Z,43.87
2022-08-18T15:20:00.434Z,46.13
2022-08-18T15:21:34.697Z,43.20
2022-08-18T15:23:04.022Z,42.97
2022-08-18T15:24:26.524Z,44.73
2022-08-18T15:25:42.077Z,41.00
2022-08-18T15:26:44.548Z,41.17
2022-08-18T15:27:46.827Z,44.07
2022-08-18T15:28:54.519Z,43.20
2022-08-18T15:30:06.884Z,41.40
2022-08-18T15:31:49.553Z,39.93
2022-08-18T15:32:33.220Z,42.40
2022-08-18T15:33:36.178Z,43.17
2022-08-18T15:34:46.080Z,41.20
2022-08-18T15:35:49.623Z,41.67
2022-08-18T15:36:53.332Z,40.70
2022-08-18T15:37:56.311Z,42.67
2022-08-18T15:39:04.207Z,42.37
2022-08-18T15:40:25.736Z,42.90
2022-08-18T15:42:57.051Z,42.80
2022-08-18T15:44:06.361Z,40.33
2022-08-18T15:45:11.537Z,41.97
2022-08-18T15:46:16.838Z,43.20
2022-08-18T15:47:21.048Z,40.53
2022-08-18T15:48:24.637Z,41.87
2022-08-18T15:49:27.025Z,42.33
2022-08-18T15:50:29.566Z,42.23
2022-08-18T15:51:41.007Z,40.30
2022-08-18T15:52:59.072Z,41.23
2022-08-18T15:54:01.863Z,41.37
2022-08-18T15:55:04.102Z,41.83
2022-08-18T15:56:20.897Z,39.50
2022-08-18T15:57:39.151Z,43.50
2022-08-18T15:58:42.441Z,41.00
2022-08-18T15:59:44.890Z,40.17
2022-08-18T16:00:52.525Z,39.97
2022-08-18T16:01:55.487Z,39.40
2022-08-18T16:03:08.911Z,38.93
2022-08-18T16:04:11.131Z,38.37
2022-08-18T16:05:14.150Z,37.50
2022-08-18T16:06:20.477Z,39.50
2022-08-18T16:07:25.210Z,40.30
2022-08-18T16:08:43.619Z,37.77
2022-08-18T16:09:45.682Z,42.40
2022-08-18T16:10:48.446Z,39.17
2022-08-18T16:11:50.605Z,37.67
2022-08-18T16:12:52.779Z,36.67
2022-08-18T16:13:55.020Z,35.90
2022-08-18T16:15:00.516Z,36.50
2022-08-18T16:16:10.607Z,35.90
2022-08-18T16:17:23.726Z,35.00
2022-08-18T16:18:32.029Z,35.47
2022-08-18T16:19:34.176Z,33.83
2022-08-18T16:20:37.358Z,36.23
2022-08-18T16:21:40.427Z,35.27
2022-08-18T16:22:43.634Z,34.40
2022-08-18T16:23:48.745Z,33.83
2022-08-18T16:24:55.104Z,34.07